createdAt,value
2022-11-27T15:14:29.444Z,100.00
2022-11-27T15:16:58.541Z,100.00
2022-11-27T15:19:29.727Z,100.00
2022-11-27T15:21:58.071Z,100.00
2022-11-27T15:24:31.792Z,100.00
2022-11-27T15:27:16.633Z,100.00
2022-11-27T15:30:00.832Z,100.00
2022-11-27T15:32:45.587Z,100.00
2022-11-27T15:35:14.901Z,100.00
2022-11-27T15:37:42.894Z,100.00
2022-11-27T15:40:26.311Z,100.00
2022-11-27T15:42:53.757Z,100.00
2022-11-27T15:45:23.536Z,100.00
2022-11-27T15:47:58.803Z,100.00
2022-11-27T15:50:26.252Z,100.00
2022-11-27T16:35:17.359Z,53.79
2022-11-27T16:37:44.814Z,60.56
2022-11-27T16:40:13.785Z,60.13
2022-11-27T16:42:41.268Z,60.31
2022-11-27T16:45:10.098Z,59.98
2022-11-27T16:47:37.776Z,60.84
2022-11-27T16:50:06.255Z,61.02
2022-11-27T16:52:35.060Z,60.76
2022-11-27T16:55:02.722Z,60.45
2022-11-27T16:57:30.214Z,60.09
2022-11-27T16:59:57.666Z,60.17
2022-11-27T17:02:25.294Z,59.78
2022-11-27T17:04:52.754Z,59.99
2022-11-27T17:07:20.952Z,60.33
2022-11-27T17:09:49.828Z,59.68
2022-11-27T17:12:17.576Z,61.15
2022-11-27T17:14:46.999Z,59.71
2022-11-27T17:17:14.542Z,59.31
2022-11-27T17:19:42.432Z,59.22
2022-11-27T17:22:10.482Z,59.27
2022-11-27T17:39:36.991Z,51.54
2022-11-27T17:42:08.736Z,57.08
2022-11-27T17:44:39.126Z,63.79
2022-11-27T17:47:06.614Z,67.53
2022-11-27T17:49:34.523Z,70.33
2022-11-27T17:52:06.372Z,74.45
2022-11-27T17:54:34.561Z,76.33
2022-11-27T17:57:03.410Z,77.58
2022-11-27T17:59:30.952Z,78.50
2022-11-27T18:01:58.923Z,79.40
2022-11-27T18:04:30.631Z,81.30
2022-11-27T18:06:58.480Z,81.75
2022-11-27T18:09:25.943Z,83.28
2022-11-27T18:11:54.821Z,84.15
2022-11-27T18:14:23.674Z,84.21
2022-11-27T18:16:51.196Z,84.55
2022-11-27T18:19:18.730Z,84.96
2022-11-27T18:21:46.273Z,85.59
2022-11-27T18:24:29.186Z,86.30
2022-11-27T18:27:12.267Z,86.31
2022-11-27T18:29:44.405Z,86.32
2022-11-27T18:32:14.308Z,85.98
2022-11-27T18:34:42.401Z,86.73
2022-11-27T18:37:10.391Z,86.47
2022-11-27T18:39:38.107Z,87.14
2022-11-27T18:42:06.555Z,87.41
2022-11-27T18:44:39.714Z,88.03
2022-11-27T18:47:12.494Z,88.55
2022-11-27T18:49:41.334Z,88.94
2022-11-27T18:52:10.477Z,90.07
2022-11-27T18:54:38.075Z,89.71
2022-11-27T18:57:06.970Z,90.11
2022-11-27T18:59:34.544Z,90.60
2022-11-27T19:02:02.381Z,91.28
2022-11-27T19:04:31.376Z,91.63
2022-11-27T19:06:58.910Z,91.56
2022-11-27T19:09:26.459Z,92.21
2022-11-27T19:11:53.929Z,92.29
2022-11-27T19:14:21.421Z,92.31
2022-11-27T19:16:49.589Z,92.22
2022-11-27T19:22:08.523Z,93.11
2022-11-27T19:24:36.390Z,93.64
2022-11-27T19:27:06.981Z,93.01
2022-11-27T19:29:34.718Z,92.99
2022-11-27T19:32:02.816Z,93.82
2022-11-27T19:34:30.415Z,94.26
2022-11-27T19:36:58.890Z,94.60
2022-11-27T19:39:28.650Z,94.28
2022-11-27T19:41:57.670Z,94.59
2022-11-27T19:44:25.312Z,93.80
2022-11-27T19:46:52.851Z,94.23
2022-11-27T19:49:21.513Z,94.34
2022-11-27T19:51:49.697Z,94.11
2022-11-27T19:54:19.163Z,93.93
2022-11-27T19:56:48.063Z,93.88
2022-11-27T19:59:15.728Z,93.43
2022-11-27T20:01:43.398Z,94.16
2022-11-27T20:04:11.935Z,93.68
2022-11-27T20:06:40.980Z,93.76
2022-11-27T20:09:08.893Z,93.54
2022-11-27T20:11:36.744Z,92.82
2022-11-27T20:14:06.953Z,93.53
2022-11-27T20:16:35.505Z,93.66
2022-11-27T20:19:05.291Z,93.83
2022-11-27T20:21:32.787Z,94.36
2022-11-27T20:24:00.553Z,94.08
2022-11-27T20:26:30.378Z,93.75
2022-11-27T20:28:58.555Z,93.88
2022-11-27T20:31:29.604Z,94.00
2022-11-27T20:34:00.536Z,93.17
2022-11-27T20:36:31.974Z,93.07
2022-11-27T20:39:01.032Z,92.93
2022-11-27T20:41:29.136Z,93.00
2022-11-27T20:43:57.190Z,93.30
2022-11-27T20:46:24.960Z,93.43
2022-11-27T20:48:55.050Z,93.76
2022-11-27T20:51:25.226Z,94.01
2022-11-27T20:53:52.739Z,94.13
2022-11-27T20:56:21.555Z,93.81
2022-11-27T20:58:49.942Z,94.45
2022-11-27T21:01:19.534Z,94.95
2022-11-27T21:03:49.088Z,95.00
2022-11-27T21:06:19.816Z,95.04
2022-11-27T21:08:47.319Z,94.69
2022-11-27T21:11:16.641Z,94.84
2022-11-27T21:13:44.675Z,95.17
2022-11-27T21:16:13.155Z,94.73
2022-11-27T21:18:40.988Z,95.18
2022-11-27T21:21:11.368Z,95.73
2022-11-27T21:23:40.802Z,95.28
2022-11-27T21:26:09.200Z,95.38
2022-11-27T21:28:36.833Z,95.69
2022-11-27T21:31:06.644Z,95.27
2022-11-27T21:33:34.225Z,94.62
2022-11-27T21:36:01.837Z,95.19
2022-11-27T21:38:29.370Z,95.27
2022-11-27T21:40:58.195Z,95.56
2022-11-27T21:43:25.752Z,95.46
2022-11-27T22:00:25.523Z,94.17
2022-11-27T22:02:53.627Z,94.17
2022-11-27T22:05:20.998Z,94.15
2022-11-27T22:07:48.545Z,93.15
2022-11-27T22:10:16.272Z,93.23
2022-11-27T22:12:43.798Z,93.32
2022-11-27T22:15:12.136Z,93.07
2022-11-27T22:17:40.946Z,92.78
2022-11-27T22:20:09.309Z,92.49
2022-11-27T22:22:36.771Z,92.66
2022-11-27T22:25:04.683Z,92.98
2022-11-27T22:27:32.235Z,92.05
2022-11-27T22:29:59.686Z,91.21
2022-11-27T22:32:27.223Z,91.05
2022-11-27T22:34:56.184Z,90.59
2022-11-27T22:37:23.688Z,90.74
2022-11-27T22:39:51.164Z,90.29
2022-11-27T22:42:18.660Z,90.20
2022-11-27T22:44:46.359Z,89.93
2022-11-27T22:47:13.814Z,88.99
2022-11-27T22:49:41.556Z,88.70
2022-11-27T22:52:10.378Z,88.35
2022-11-27T22:54:37.857Z,87.59
2022-11-27T22:57:05.321Z,87.98
2022-11-27T22:59:34.368Z,87.52
2022-11-27T23:02:02.709Z,87.86
2022-11-27T23:04:30.175Z,87.54
2022-11-27T23:06:57.639Z,86.85
2022-11-27T23:09:26.734Z,86.68
2022-11-27T23:11:54.312Z,87.15
2022-11-27T23:14:21.771Z,87.50
2022-11-27T23:16:49.490Z,86.71
2022-11-27T23:19:17.055Z,86.98
2022-11-27T23:21:44.749Z,87.38
2022-11-27T23:24:15.061Z,86.48
2022-11-27T23:26:45.662Z,86.81
2022-11-27T23:29:13.842Z,86.04
2022-11-27T23:31:41.368Z,85.55
2022-11-27T23:34:13.036Z,85.89
2022-11-27T23:36:40.591Z,85.65
2022-11-27T23:39:10.035Z,85.78
2022-11-27T23:41:37.520Z,85.65
2022-11-27T23:44:06.753Z,85.39
2022-11-27T23:46:34.267Z,85.56
2022-11-27T23:49:03.312Z,85.94
2022-11-27T23:51:32.558Z,85.83
2022-11-27T23:54:01.356Z,85.18
2022-11-27T23:56:30.816Z,85.38
2022-11-27T23:58:59.030Z,85.48
